Latest Weather Observations for Combienbar

IDV60801

Issued at 10:32 am EST Saturday 30 May 2015 (issued every 30 minutes, with the page automatically refreshed every 10 minutes)

About weather observations | Map of weather stations | Latest weather observations for VIC | Other Formats
Station Details ID: 084143 Name: COMBIENBAR AWS Lat: -37.34 Lon: 149.02 Height: 640.0 m
Data from the previous 72 hours. | See also: Recent months at Combienbar
Date/Time
EST
Temp
°C
App
Temp
°C
Dew
Point
Rel
Hum
%
Delta-T
°C
Wind Press
QNH
hPa
Press
MSL
hPa
Rain
since 9 am
mm
Dir
 
Spd
km/h
Gust
km/h
Spd
kts
Gust
kts
30/10:30am 10.3 8.0 2.7 59 3.4 ESE 4 9 2 5 1019.4 1019.1 0.0
30/10:00am 10.6 8.1 1.7 54 3.9 NW 4 9 2 5 1019.8 1019.4 0.0
30/09:30am 9.1 6.4 2.4 63 2.9 WNW 6 15 3 8 1020.0 1019.6 0.0
30/09:00am 8.9 6.4 1.8 61 3.1 NNW 4 9 2 5 1020.1 1019.8 0.0
30/08:30am 7.7 4.4 0.4 60 3.0 NW 7 15 4 8 1019.9 1019.5 0.0
30/08:00am 7.0 4.7 0.7 64 2.6 NW 2 6 1 3 1020.0 1019.6 0.0
30/07:30am 6.9 3.8 0.4 63 2.7 NW 6 13 3 7 1020.1 1019.8 0.0
30/07:00am 6.7 3.6 0.2 63 2.6 NW 6 17 3 9 1020.1 1019.8 0.0
30/06:30am 6.7 4.0 0.2 63 2.6 NNW 4 11 2 6 1020.1 1019.8 0.0
30/06:00am 7.1 4.1 0.5 63 2.7 NW 6 13 3 7 1020.2 1019.9 0.0
30/05:30am 6.6 4.3 0.5 65 2.5 WNW 2 6 1 3 1020.2 1019.9 0.0
30/05:00am 6.1 4.2 0.6 68 2.2 CALM 0 2 0 1 1020.3 1020.0 0.0
30/04:30am 6.2 4.3 0.7 68 2.3 CALM 0 2 0 1 1020.4 1020.1 0.0
30/04:00am 6.6 4.4 0.9 67 2.3 WNW 2 6 1 3 1020.4 1020.1 0.0
30/03:30am 7.6 4.4 0.8 62 2.8 NW 7 13 4 7 1020.5 1020.2 0.0
30/03:00am 7.0 4.8 1.1 66 2.4 WNW 2 7 1 4 1020.9 1020.6 0.0
30/02:30am 7.5 4.9 1.1 64 2.7 NW 4 13 2 7 1021.4 1021.0 0.0
30/02:00am 7.8 4.9 1.2 63 2.8 WNW 6 13 3 7 1021.6 1021.3 0.0
30/01:30am 7.9 5.0 1.3 63 2.8 NW 6 13 3 7 1021.8 1021.5 0.0
30/01:00am 7.9 5.4 1.3 63 2.8 NNW 4 13 2 7 1022.0 1021.7 0.0
30/12:30am 7.4 5.3 1.7 67 2.4 NNW 2 9 1 5 1022.0 1021.7 0.0
30/12:00am 6.5 4.7 3.3 80 1.4 E 2 7 1 4 1022.0 1021.7 0.0
 
Date/Time
EST
Temp
°C
App
Temp
°C
Dew
Point
Rel
Hum
%
Delta-T
°C
Wind Press
QNH
hPa
Press
MSL
hPa
Rain
since 9 am
mm
Dir
 
Spd
km/h
Gust
km/h
Spd
kts
Gust
kts
29/11:30pm 6.1 4.8 3.9 86 1.0 CALM 0 0 0 0 1022.3 1022.0 0.0
29/11:00pm 5.9 4.5 3.6 85 1.0 CALM 0 0 0 0 1022.3 1022.0 0.0
29/10:30pm 6.5 5.2 4.0 84 1.1 CALM 0 0 0 0 1022.4 1022.1 0.0
29/10:00pm 6.6 5.3 4.1 84 1.1 CALM 0 0 0 0 1022.6 1022.3 0.0
29/09:30pm 6.5 5.2 4.2 85 1.0 CALM 0 0 0 0 1022.9 1022.6 0.0
29/09:00pm 6.6 5.3 4.1 84 1.1 CALM 0 0 0 0 1022.6 1022.3 0.0
29/08:30pm 6.9 5.6 4.2 83 1.2 CALM 0 0 0 0 1022.7 1022.5 0.0
29/08:00pm 7.3 6.0 4.3 81 1.3 CALM 0 0 0 0 1022.6 1022.3 0.0
29/07:30pm 7.4 6.2 4.5 82 1.3 CALM 0 0 0 0 1022.4 1022.1 0.0
29/07:00pm 7.6 6.4 4.6 81 1.4 CALM 0 0 0 0 1022.3 1022.0 0.0
29/06:30pm 7.6 6.4 4.6 81 1.4 CALM 0 0 0 0 1021.9 1021.6 0.0
29/06:00pm 7.7 6.6 5.0 83 1.2 CALM 0 0 0 0 1021.6 1021.3 0.0
29/05:30pm 7.8 6.7 4.9 82 1.3 CALM 0 0 0 0 1021.4 1021.0 0.0
29/05:00pm 8.1 7.0 4.9 80 1.5 CALM 0 0 0 0 1021.0 1020.7 0.0
29/04:30pm 8.4 7.3 5.2 80 1.5 CALM 0 0 0 0 1020.8 1020.5 0.0
29/04:00pm 8.8 7.7 5.2 78 1.7 CALM 0 0 0 0 1020.7 1020.4 0.0
29/03:30pm 9.4 8.3 5.0 74 2.1 CALM 0 0 0 0 1020.6 1020.3 0.0
29/03:00pm 10.2 9.1 5.2 71 2.4 CALM 0 2 0 1 1020.4 1020.1 0.0
29/02:30pm 9.8 8.8 5.6 75 2.0 CALM 0 2 0 1 1020.2 1019.9 0.0
29/02:00pm 10.3 9.2 5.3 71 2.4 CALM 0 2 0 1 1020.0 1019.6 0.0
29/01:30pm 11.6 10.7 5.9 68 2.8 CALM 0 4 0 2 1019.9 1019.5 0.0
29/01:00pm 10.9 9.9 5.4 69 2.6 CALM 0 0 0 0 1019.9 1019.5 0.0
29/12:30pm 10.4 9.4 5.8 73 2.2 CALM 0 2 0 1 1019.9 1019.5 0.0
29/12:00pm 9.9 8.8 5.3 73 2.2 CALM 0 0 0 0 1020.2 1019.9 0.0
29/11:30am 9.4 8.4 5.4 76 1.9 CALM 0 4 0 2 1020.4 1020.1 0.0
29/11:00am 8.7 7.6 5.3 79 1.6 CALM 0 4 0 2 1020.7 1020.4 0.0
29/10:30am 8.1 7.1 5.6 84 1.2 CALM 0 2 0 1 1020.6 1020.3 0.0
29/10:00am 7.8 6.9 5.9 88 0.9 CALM 0 4 0 2 1020.6 1020.3 0.0
29/09:30am 7.6 6.6 5.6 87 0.9 CALM 0 2 0 1 1020.6 1020.3 0.0
29/09:00am 7.4 6.4 5.5 88 0.9 CALM 0 0 0 0 1020.3 1020.0 0.0
29/08:30am 7.3 6.3 5.4 88 0.9 CALM 0 0 0 0 1020.1 1019.8 0.0
29/08:00am 7.2 6.1 5.2 87 0.9 CALM 0 0 0 0 1019.8 1019.4 0.0
29/07:30am 7.5 6.7 6.3 92 0.6 CALM 0 2 0 1 1019.6 1019.2 0.0
29/07:00am 7.8 7.0 6.7 93 0.5 CALM 0 0 0 0 1019.1 1018.8 0.0
29/06:30am 8.2 7.5 7.1 93 0.5 CALM 0 0 0 0 1019.1 1018.8 0.0
29/06:00am 8.3 7.7 7.4 94 0.4 CALM 0 0 0 0 1018.5 1018.1 0.0
29/05:30am 8.4 7.8 7.3 93 0.5 CALM 0 0 0 0 1018.3 1017.9 0.0
29/05:00am 8.7 8.1 7.6 93 0.5 CALM 0 4 0 2 1018.0 1017.6 0.0
29/04:30am 8.7 8.1 7.6 93 0.5 CALM 0 0 0 0 1017.6 1017.3 0.0
29/04:00am 8.3 7.6 6.9 91 0.7 CALM 0 0 0 0 1017.3 1016.9 0.0
29/03:30am 8.2 6.9 6.0 86 1.0 S 2 6 1 3 1017.1 1016.7 0.0
29/03:00am 10.2 8.4 5.4 72 2.3 SW 4 6 2 3 1016.6 1016.2 0.0
29/02:30am 12.4 10.5 5.1 61 3.5 SW 4 9 2 5 1016.3 1015.9 0.0
29/02:00am 12.2 10.8 5.4 63 3.3 NW 2 7 1 4 1016.5 1016.1 0.0
29/01:30am 12.5 10.8 5.7 63 3.3 W 4 17 2 9 1016.3 1015.9 0.0
29/01:00am 12.5 11.2 5.9 64 3.2 WNW 2 7 1 4 1016.2 1015.8 0.0
29/12:30am 11.8 10.5 5.9 67 2.9 WSW 2 9 1 5 1016.4 1016.0 0.0
29/12:00am 11.3 9.5 5.4 67 2.8 NE 4 15 2 8 1016.4 1016.0 0.0
 
Date/Time
EST
Temp
°C
App
Temp
°C
Dew
Point
Rel
Hum
%
Delta-T
°C
Wind Press
QNH
hPa
Press
MSL
hPa
Rain
since 9 am
mm
Dir
 
Spd
km/h
Gust
km/h
Spd
kts
Gust
kts
28/11:30pm 10.9 8.7 5.4 69 2.6 NNE 6 17 3 9 1016.6 1016.2 0.0
28/11:00pm 10.9 9.0 5.0 67 2.8 NNE 4 9 2 5 1017.0 1016.6 0.0
28/10:30pm 10.7 8.8 4.8 67 2.8 NNE 4 7 2 4 1016.9 1016.5 0.0
28/10:00pm 9.7 7.4 4.7 71 2.3 NNE 6 7 3 4 1017.1 1016.7 0.0
28/09:30pm 10.7 8.8 4.8 67 2.8 NE 4 7 2 4 1017.3 1016.9 0.0
28/09:00pm 10.8 8.5 4.9 67 2.8 NNE 6 7 3 4 1017.1 1016.7 0.0
28/08:30pm 11.2 9.7 4.9 65 3.0 NNE 2 6 1 3 1017.1 1016.7 0.0
28/08:00pm 11.9 10.0 4.9 62 3.3 NNE 4 6 2 3 1017.2 1016.8 0.0
28/07:30pm 12.7 10.3 5.1 60 3.6 NNE 7 13 4 7 1017.5 1017.2 0.0
28/07:00pm 12.6 10.3 4.8 59 3.7 N 6 15 3 8 1017.4 1017.1 0.0
28/06:30pm 13.3 10.0 4.7 56 4.1 NNW 11 20 6 11 1017.6 1017.3 0.0
28/06:00pm 12.0 10.9 5.2 63 3.2 CALM 0 0 0 0 1017.3 1016.9 0.0
28/05:30pm 12.1 11.0 5.3 63 3.3 CALM 0 0 0 0 1017.1 1016.7 0.0
28/05:00pm 12.1 10.7 5.5 64 3.2 NE 2 6 1 3 1017.0 1016.6 0.0
28/04:30pm 12.0 10.8 6.3 68 2.8 NE 2 7 1 4 1017.0 1016.6 0.0
28/04:00pm 12.5 11.7 6.5 67 3.0 CALM 0 4 0 2 1017.2 1016.8 0.0
28/03:30pm 13.1 12.0 6.9 66 3.1 NNE 2 6 1 3 1017.4 1017.1 0.0
28/03:00pm 14.4 13.1 7.5 63 3.5 N 4 9 2 5 1017.3 1016.9 0.0
28/02:30pm 15.7 14.4 7.5 58 4.2 NE 4 7 2 4 1017.7 1017.4 0.0
28/02:00pm 16.0 14.5 7.0 55 4.6 N 4 9 2 5 1018.2 1017.8 0.0
28/01:30pm 15.5 14.2 7.8 60 4.0 NW 4 7 2 4 1018.4 1018.0 0.0
28/01:00pm 16.3 14.5 7.8 57 4.4 N 7 20 4 11 1018.8 1018.5 0.0
28/12:30pm 15.5 12.3 6.8 56 4.4 NNW 13 30 7 16 1019.2 1018.9 0.0
28/12:00pm 17.7 16.6 9.8 60 4.3 NE 6 15 3 8 1019.4 1019.1 0.0
28/11:30am 14.2 12.4 7.3 63 3.5 NNW 6 22 3 12 1020.1 1019.8 0.0
28/11:00am 13.4 12.4 7.2 66 3.1 NNW 2 7 1 4 1020.5 1020.2 0.0
28/10:30am 13.2 11.9 5.9 61 3.6 NNE 2 9 1 5 1020.6 1020.3 0.0
28/10:00am 13.0 10.6 5.4 60 3.7 NNW 7 17 4 9 1020.7 1020.4 0.0
28/09:30am 12.9 10.2 5.6 61 3.5 NNW 9 26 5 14 1020.8 1020.5 0.0
28/09:00am 12.6 9.4 5.3 61 3.5 NW 11 26 6 14 1020.9 1020.6 0.0
28/08:30am 12.7 8.3 4.9 59 3.7 NNW 17 33 9 18 1020.7 1020.4 0.0
28/08:00am 12.2 8.2 4.9 61 3.5 NNW 15 32 8 17 1020.7 1020.4 0.0
28/07:30am 11.8 9.3 5.0 63 3.2 NNW 7 20 4 11 1020.8 1020.5 0.0
28/07:00am 10.9 8.7 5.2 68 2.7 N 6 15 3 8 1020.8 1020.5 0.0
28/06:30am 11.3 9.5 5.4 67 2.8 N 4 9 2 5 1020.6 1020.3 0.0
28/06:00am 10.8 9.7 5.1 68 2.7 CALM 0 0 0 0 1020.4 1020.1 0.0
28/05:30am 10.9 9.1 5.2 68 2.7 ENE 4 9 2 5 1020.1 1019.8 0.0
28/05:00am 11.3 9.5 5.2 66 2.9 N 4 13 2 7 1020.1 1019.8 0.0
28/04:30am 11.2 9.8 5.3 67 2.8 N 2 7 1 4 1020.3 1020.0 0.0
28/04:00am 11.6 10.1 4.8 63 3.2 SW 2 9 1 5 1020.4 1020.1 0.0
28/03:30am 12.0 10.4 4.7 61 3.5 ESE 2 17 1 9 1020.1 1019.8 0.0
28/03:00am 11.9 10.0 5.1 63 3.2 NW 4 17 2 9 1020.3 1020.0 0.0
28/02:30am 11.2 9.8 5.3 67 2.8 SSE 2 7 1 4 1020.7 1020.4 0.0
28/02:00am 11.8 10.3 5.2 64 3.1 ENE 2 13 1 7 1020.9 1020.6 0.0
28/01:30am 11.5 10.0 4.9 64 3.1 SE 2 7 1 4 1021.0 1020.7 0.0
28/01:00am 11.3 10.2 5.0 65 3.0 CALM 0 2 0 1 1021.2 1020.8 0.0
28/12:30am 10.9 9.4 5.2 68 2.7 SW 2 9 1 5 1021.0 1020.7 0.0
28/12:00am 11.5 9.7 5.2 65 3.0 SW 4 9 2 5 1021.4 1021.0 0.0
 
Date/Time
EST
Temp
°C
App
Temp
°C
Dew
Point
Rel
Hum
%
Delta-T
°C
Wind Press
QNH
hPa
Press
MSL
hPa
Rain
since 9 am
mm
Dir
 
Spd
km/h
Gust
km/h
Spd
kts
Gust
kts
27/11:30pm 11.5 9.7 5.2 65 3.0 WSW 4 9 2 5 1021.5 1021.2 0.0
27/11:00pm 11.7 9.5 5.3 65 3.0 WSW 6 17 3 9 1021.5 1021.2 0.0
27/10:30pm 11.9 9.5 5.3 64 3.2 WNW 7 19 4 10 1021.4 1021.0 0.0
27/10:00pm 12.0 9.6 5.4 64 3.2 NW 7 15 4 8 1021.4 1021.0 0.0
27/09:30pm 12.2 10.1 5.8 65 3.1 NW 6 17 3 9 1021.5 1021.2 0.0
27/09:00pm 11.8 9.8 6.1 68 2.8 N 6 13 3 7 1021.6 1021.3 0.0
27/08:30pm 11.6 10.2 5.7 67 2.8 NW 2 9 1 5 1021.6 1021.3 0.0
27/08:00pm 11.8 10.4 5.7 66 2.9 N 2 6 1 3 1021.4 1021.0 0.0
27/07:30pm 12.6 10.9 5.8 63 3.3 W 4 15 2 8 1021.2 1020.8 0.0
27/07:00pm 12.9 10.8 5.8 62 3.5 WNW 6 13 3 7 1021.2 1020.8 0.0
27/06:30pm 12.6 11.0 6.2 65 3.1 N 4 9 2 5 1020.8 1020.5 0.0
27/06:00pm 13.1 10.9 6.2 63 3.4 NNW 7 17 4 9 1020.7 1020.4 0.0
27/05:30pm 13.1 10.5 6.2 63 3.4 NW 9 17 5 9 1020.6 1020.3 0.0
27/05:00pm 13.2 11.0 6.3 63 3.4 NNW 7 13 4 7 1020.5 1020.2 0.0
27/04:30pm 13.4 10.9 6.5 63 3.4 NW 9 17 5 9 1020.5 1020.2 0.0
27/04:00pm 13.6 11.4 6.0 60 3.7 NW 7 17 4 9 1020.4 1020.1 0.0
27/03:30pm 13.9 12.3 6.3 60 3.8 WNW 4 13 2 7 1020.5 1020.2 0.0
27/03:00pm 14.5 13.3 6.6 59 4.0 W 2 11 1 6 1020.6 1020.3 0.0
27/02:30pm 14.5 13.8 6.8 60 3.9 CALM 0 4 0 2 1020.5 1020.2 0.0
27/02:00pm 15.2 14.7 7.7 61 3.9 CALM 0 0 0 0 1020.5 1020.2 0.0
27/01:30pm 16.0 14.7 6.2 52 4.9 E 2 4 1 2 1020.8 1020.5 0.0
27/01:00pm 15.5 14.2 6.0 53 4.7 SSW 2 7 1 4 1021.0 1020.7 0.0
27/12:30pm 16.2 14.7 5.2 48 5.4 W 2 7 1 4 1021.4 1021.0 0.0
27/12:00pm 15.5 14.4 5.1 50 5.1 CALM 0 2 0 1 1021.7 1021.4 0.0
27/11:30am 14.9 13.3 4.3 49 5.1 W 2 7 1 4 1022.0 1021.7 0.0
27/11:00am 14.6 13.3 4.3 50 4.9 CALM 0 6 0 3 1022.4 1022.1 0.0

Other Formats:

Comma delimited format used in spreadsheet applications
http://www.bom.gov.au/fwo/IDV60801/IDV60801.94914.axf

JavaScript Object Notation format (JSON) in row-major order
http://www.bom.gov.au/fwo/IDV60801/IDV60801.94914.json